»·PEaware :: KLM691 KLAX-KSFO

KLM691 :: KLAX-KSFO

FLIGHT INFORMATION

Flight Status: Arrived
Operator:
KLM
More flights by this operator :: More flights under this callsign
Pilot: Thomas N. (7419)
Aircraft: BOEING 737-300
(B733)
More flights by this aircraft type
Origin: KLAX Los Angeles Intl
United States
Destination: KSFO San Francisco Intl
United States
More flights between these airports :: More routes between these airports
Route: +VTU7 RZS STOKD SERFR SERFR2
File this flight plan on PilotEdge
Remarks:
Altitude:
(Current/Filed)
32,000ft
Speed:
(Current/Filed)
325kts
Departed: 11-Nov-16 04:56 PM
Arrived: 11-Nov-16 05:55 PM
Distance/Time
Traveled:
293nm/0:59
Distance/Time
To Go:
Arrived

Flight Plot

Page will automatically refresh every two minutes.


Map Options




Map Legend


Flown Route
Filed Route
Departure Airport
Arrival Airport
Navaid (VOR, NDB)
Fix

Horizontal Profiles

Position Reports

Time Latitude Longitude Heading Altitude Ground
Speed
11-Nov-16 16:25 33.947861 -118.401476 170 132ft 0kts
11-Nov-16 16:26 33.947861 -118.401476 170 132ft 0kts
11-Nov-16 16:27 33.947861 -118.401476 170 132ft 0kts
11-Nov-16 16:28 33.947861 -118.401476 170 132ft 0kts
11-Nov-16 16:29 33.947861 -118.401476 170 132ft 0kts
11-Nov-16 16:30 33.947861 -118.401476 170 132ft 0kts
11-Nov-16 16:31 33.947861 -118.401476 170 132ft 0kts
11-Nov-16 16:32 33.947861 -118.401476 170 132ft 0kts
11-Nov-16 16:33 33.947861 -118.401476 170 132ft 0kts
11-Nov-16 16:34 33.947953 -118.401494 170 132ft 0kts
11-Nov-16 16:35 33.948389 -118.401735 107 132ft 0kts
11-Nov-16 16:36 33.948389 -118.401735 107 132ft 0kts
11-Nov-16 16:37 33.948389 -118.401735 107 132ft 0kts
11-Nov-16 16:38 33.948389 -118.401735 107 132ft 0kts
11-Nov-16 16:39 33.948389 -118.401735 107 132ft 0kts
11-Nov-16 16:40 33.948389 -118.401735 107 132ft 0kts
11-Nov-16 16:41 33.948350 -118.401549 102 132ft 3kts
11-Nov-16 16:42 33.948764 -118.400979 337 132ft 0kts
11-Nov-16 16:43 33.948764 -118.400979 337 132ft 0kts
11-Nov-16 16:44 33.948764 -118.400979 337 132ft 0kts
11-Nov-16 16:45 33.948940 -118.401145 309 132ft 3kts
11-Nov-16 16:46 33.949139 -118.401436 319 132ft 0kts
11-Nov-16 16:47 33.949173 -118.401471 319 132ft 1kts
11-Nov-16 16:48 33.950024 -118.402158 264 132ft 0kts
11-Nov-16 16:49 33.949947 -118.402941 265 132ft 35kts
11-Nov-16 16:50 33.944198 -118.454744 262 1610ft 203kts
11-Nov-16 16:51 33.935691 -118.533030 262 4228ft 264kts
11-Nov-16 16:52 33.926184 -118.620287 262 5972ft 271kts
11-Nov-16 16:53 33.918636 -118.698898 262 8125ft 283kts
11-Nov-16 16:54 33.909811 -118.794997 262 10636ft 296kts
11-Nov-16 16:55 33.900988 -118.895272 263 12898ft 312kts
11-Nov-16 16:56 33.893357 -118.997689 269 13106ft 305kts
11-Nov-16 16:57 33.956386 -119.055720 326 13985ft 305kts
11-Nov-16 16:58 33.998147 -119.107481 310 15091ft 298kts
11-Nov-16 16:59 34.055223 -119.180600 309 16590ft 301kts
11-Nov-16 17:00 34.116100 -119.258963 310 18152ft 329kts
11-Nov-16 17:01 34.179202 -119.339914 310 19946ft 333kts
11-Nov-16 17:02 34.242853 -119.422053 310 21853ft 338kts
11-Nov-16 17:03 34.307254 -119.505511 310 23761ft 342kts
11-Nov-16 17:04 34.372302 -119.590069 310 25704ft 347kts
11-Nov-16 17:05 34.437787 -119.675292 311 27697ft 348kts
11-Nov-16 17:06 34.502884 -119.760069 312 29560ft 343kts
11-Nov-16 17:07 34.573025 -119.836035 318 31132ft 336kts
11-Nov-16 17:08 34.639715 -119.906605 319 32128ft 318kts
11-Nov-16 17:09 34.706222 -119.977107 319 32101ft 316kts
11-Nov-16 17:10 34.772392 -120.047532 319 32111ft 317kts
11-Nov-16 17:11 34.838283 -120.117661 319 32112ft 317kts
11-Nov-16 17:12 34.904754 -120.188259 318 32114ft 317kts
11-Nov-16 17:13 34.971115 -120.259367 318 32120ft 321kts
11-Nov-16 17:14 35.038199 -120.331499 318 32117ft 323kts
11-Nov-16 17:15 35.105295 -120.403808 318 32114ft 323kts
11-Nov-16 17:16 35.172533 -120.476443 318 32106ft 323kts
11-Nov-16 17:17 35.239862 -120.549338 318 32101ft 324kts
11-Nov-16 17:18 35.306808 -120.621985 318 32099ft 323kts
11-Nov-16 17:19 35.373928 -120.694985 318 32101ft 323kts
11-Nov-16 17:20 35.441098 -120.768223 318 32104ft 324kts
11-Nov-16 17:21 35.511913 -120.843207 322 32076ft 357kts
11-Nov-16 17:22 35.594736 -120.920213 322 32073ft 394kts
11-Nov-16 17:23 35.683735 -121.003034 322 32068ft 427kts
11-Nov-16 17:24 35.780509 -121.093307 321 32062ft 448kts
11-Nov-16 17:25 35.878879 -121.184617 320 31018ft 440kts
11-Nov-16 17:26 35.974845 -121.274717 320 29110ft 428kts
11-Nov-16 17:27 36.068175 -121.362545 321 27378ft 418kts
11-Nov-16 17:28 36.164160 -121.439355 325 25681ft 409kts
11-Nov-16 17:29 36.259054 -121.513529 325 23978ft 400kts
11-Nov-16 17:30 36.351457 -121.586067 325 22280ft 390kts
11-Nov-16 17:31 36.441838 -121.657354 325 20576ft 381kts
11-Nov-16 17:32 36.530641 -121.726189 326 20110ft 379kts
11-Nov-16 17:33 36.619039 -121.795377 325 18418ft 371kts
11-Nov-16 17:34 36.704309 -121.863006 325 16323ft 360kts
11-Nov-16 17:35 36.794349 -121.910413 345 14230ft 354kts
11-Nov-16 17:36 36.888428 -121.937715 346 12133ft 343kts
11-Nov-16 17:37 36.979294 -121.964993 342 10093ft 329kts
11-Nov-16 17:38 37.062023 -121.996405 341 8852ft 298kts
11-Nov-16 17:39 37.136648 -122.025485 340 7893ft 272kts
11-Nov-16 17:40 37.207950 -122.053365 339 7306ft 268kts
11-Nov-16 17:41 37.277905 -122.080813 340 6708ft 261kts
11-Nov-16 17:42 37.345950 -122.107349 340 6575ft 261kts
11-Nov-16 17:43 37.413207 -122.131852 341 5979ft 245kts
11-Nov-16 17:44 37.479276 -122.156435 343 4392ft 257kts
11-Nov-16 17:45 37.540385 -122.185957 303 3149ft 236kts
11-Nov-16 17:46 37.570469 -122.259811 297 1782ft 231kts
11-Nov-16 17:47 37.595639 -122.321176 298 837ft 158kts
11-Nov-16 17:48 37.613331 -122.362307 298 25ft 113kts
11-Nov-16 17:49 37.616604 -122.372154 209 20ft 0kts
11-Nov-16 17:50 37.616196 -122.372571 258 20ft 6kts
11-Nov-16 17:51 37.617688 -122.376814 292 20ft 14kts
11-Nov-16 17:52 37.616809 -122.379572 192 20ft 12kts
11-Nov-16 17:53 37.613302 -122.381862 208 20ft 19kts
11-Nov-16 17:54 37.610600 -122.384781 297 20ft 14kts
11-Nov-16 17:55 37.612609 -122.388108 298 20ft 11kts
11-Nov-16 17:56 37.612809 -122.388599 296 20ft 0kts
11-Nov-16 17:57 37.612809 -122.388599 296 20ft 0kts

Navigation Log

Ident Type
Flight plan parsing failed, navigation log unavailable